Aeroporto :
LOGIN :

Iscrizione | Disclaimer

   EN    FR    IT 

 










Sommario :    VFR   VFR Marginale   IFR   IFR Intensivo   IFR Molto Intensivo
Visibilità : 
Base nubi : 
>= 8 km
>= 3000ft
5 / 8 km
1000 / 3000 ft
1500m / 5 km
500 / 1000 ft
800 / 1500m
200 / 500 ft
< 800m
< 200 ft
Simboli :   Temporali  Nebbia  Neve Forte  Precipitazioni Forti  Vento > 20 kt
SIGMETs :   Varie  Temporali  Ghiacco  Turbolenza  Onda orograficha  Ceneri Vulcaniche






- Altitudine del aeroporto : 194 ft
- Codice IATA : IEG


EPZG - Zielona Gora Babimost

ULTIMO METAR :
  • 151700Z 29005KT 250V330 CAVOK 19/16 Q1010

METARs OBSOLETI :
  • 151630Z 28004KT CAVOK 19/17 Q1010
  • 151600Z 32005KT 290V350 9999 FEW053CB 19/17 Q1010
  • 151530Z VRB02KT 9999 VCTS SCT053CB 18/17 Q1010
  • 151500Z VRB01KT 9999 BKN053CB 18/17 Q1010 RETS
  • 151430Z 26005KT 200V300 9999 -TSRA BKN051CB 17/15 Q1011 RESHRA

TAF TAF EPZG
Valido dal 15 a 15 ore il 16 a 00 ore UTC


151430Z 1515/1524 19008KT 9999 SCT050
TEMPO 1515/1517 28015G30KT TSRA BKN040CB
TEMPO 1517/1520 SHRA BKN030CB
BECMG 1518/1520 29010KT
TEMPO 1520/1524 4000 RA BR BKN014



MetMap, La meteo Aeronautica in un colpo d'occhio ! - Copyright ORBIFLY Dicembre 2007 - Disclaimer

ORBIFLY MET'MAP TEAM :

Programmazione e sviluppo : Alexandra Zaïnal
Concezione : Baudouin d'Aumeries
Aiuto per la programmazione : Marc-Olivier Méhu
Supporto tecnico e logistico : Manuel Goepfert
Aiuto per la traduzione : Arnaldo La Scala

Contatto : metmap@orbifly.com




FONTI E CREDITI :

   NOAA